createdAt,value
2023-02-19T00:01:24.589Z,2.30
2023-02-19T00:03:52.414Z,2.47
2023-02-19T00:06:19.363Z,2.20
2023-02-19T00:08:45.760Z,2.03
2023-02-19T00:11:13.087Z,2.60
2023-02-19T00:13:41.693Z,2.38
2023-02-19T00:16:13.302Z,2.50
2023-02-19T00:18:39.815Z,2.67
2023-02-19T00:21:06.484Z,1.90
2023-02-19T00:23:32.977Z,1.85
2023-02-19T00:26:18.988Z,1.95
2023-02-19T00:28:46.246Z,2.13
2023-02-19T00:31:18.277Z,2.90
2023-02-19T00:33:45.590Z,2.15
2023-02-19T00:36:12.420Z,2.97
2023-02-19T00:38:39.914Z,2.38
2023-02-19T00:41:19.108Z,2.33
2023-02-19T00:43:45.495Z,2.33
2023-02-19T00:46:11.871Z,3.00
2023-02-19T00:48:38.281Z,1.80
2023-02-19T00:51:04.697Z,1.83
2023-02-19T00:53:31.088Z,2.47
2023-02-19T00:55:57.501Z,2.40
2023-02-19T00:58:23.838Z,3.15
2023-02-19T01:00:50.146Z,2.42
2023-02-19T01:03:16.466Z,1.77
2023-02-19T01:05:42.749Z,1.30
2023-02-19T01:08:09.075Z,2.17
2023-02-19T01:10:35.383Z,1.70
2023-02-19T01:13:01.735Z,2.55
2023-02-19T01:15:28.138Z,2.20
2023-02-19T01:17:54.529Z,1.73
2023-02-19T01:20:20.867Z,2.28
2023-02-19T01:22:47.175Z,2.55
2023-02-19T01:25:13.496Z,1.85
2023-02-19T01:27:39.854Z,1.73
2023-02-19T01:30:06.485Z,1.88
2023-02-19T01:32:32.951Z,2.33
2023-02-19T01:34:59.668Z,2.35
2023-02-19T01:37:25.990Z,2.53
2023-02-19T01:39:52.372Z,2.70
2023-02-19T01:42:18.692Z,1.63
2023-02-19T01:44:45.238Z,1.70
2023-02-19T01:47:12.098Z,2.55
2023-02-19T01:49:40.677Z,1.58
2023-02-19T01:52:15.836Z,1.92
2023-02-19T01:54:43.669Z,1.92
2023-02-19T01:57:13.468Z,2.08
2023-02-19T01:59:40.334Z,1.95
2023-02-19T02:02:06.837Z,1.73
2023-02-19T02:04:33.780Z,1.92
2023-02-19T02:07:01.160Z,2.17
2023-02-19T02:09:47.550Z,2.10
2023-02-19T02:12:14.074Z,2.17
2023-02-19T02:14:42.964Z,2.25
2023-02-19T02:17:21.606Z,3.30
2023-02-19T02:19:53.799Z,2.28
2023-02-19T02:22:42.857Z,2.85
2023-02-19T02:25:28.120Z,2.05
2023-02-19T02:28:12.998Z,2.80
2023-02-19T02:30:56.029Z,2.25
2023-02-19T02:33:41.141Z,2.03
2023-02-19T02:36:08.874Z,2.85
2023-02-19T02:38:37.604Z,2.20
2023-02-19T02:41:04.695Z,1.70
2023-02-19T02:43:31.373Z,1.27
2023-02-19T02:45:57.777Z,1.63
2023-02-19T02:48:29.943Z,2.53
2023-02-19T02:51:17.461Z,2.47
2023-02-19T02:54:22.874Z,1.90
2023-02-19T02:56:50.006Z,2.20
2023-02-19T02:59:18.615Z,2.03
2023-02-19T03:02:14.125Z,2.28
2023-02-19T03:05:19.312Z,2.10
2023-02-19T03:07:45.629Z,1.83
2023-02-19T03:10:13.452Z,2.90
2023-02-19T03:12:58.987Z,2.38
2023-02-19T03:15:46.190Z,2.05
2023-02-19T03:18:32.540Z,1.77
2023-02-19T03:20:59.858Z,2.05
2023-02-19T03:23:47.742Z,2.90
2023-02-19T03:26:14.809Z,1.80
2023-02-19T03:29:01.707Z,2.17
2023-02-19T03:31:29.703Z,2.47
2023-02-19T03:33:57.527Z,2.25
2023-02-19T03:36:27.141Z,2.50
2023-02-19T03:39:02.030Z,2.40
2023-02-19T03:41:48.052Z,2.23
2023-02-19T03:44:33.320Z,2.28
2023-02-19T03:47:06.273Z,2.05
2023-02-19T03:49:35.472Z,2.20
2023-02-19T03:52:04.538Z,1.75
2023-02-19T03:54:57.229Z,2.10
2023-02-19T03:57:28.198Z,1.48
2023-02-19T04:00:05.855Z,2.03
2023-02-19T04:02:35.005Z,1.42
2023-02-19T04:05:14.291Z,1.77
2023-02-19T04:07:43.643Z,1.80
2023-02-19T04:10:10.188Z,2.17
2023-02-19T04:12:38.256Z,2.38
2023-02-19T04:15:09.921Z,2.10
2023-02-19T04:17:39.028Z,1.88
2023-02-19T04:20:07.522Z,2.25
2023-02-19T04:22:34.914Z,2.20
2023-02-19T04:25:01.422Z,1.45
2023-02-19T04:27:27.767Z,1.25
2023-02-19T04:29:54.205Z,1.67
2023-02-19T04:32:20.717Z,2.03
2023-02-19T04:34:47.084Z,2.10
2023-02-19T04:37:13.576Z,2.78
2023-02-19T04:39:39.907Z,1.85
2023-02-19T04:42:06.245Z,2.30
2023-02-19T04:44:33.335Z,2.33
2023-02-19T04:46:59.634Z,1.83
2023-02-19T04:49:26.024Z,2.20
2023-02-19T04:51:52.541Z,2.17
2023-02-19T04:54:18.864Z,2.17
2023-02-19T04:56:45.198Z,2.28
2023-02-19T04:59:11.569Z,2.20
2023-02-19T05:01:37.892Z,1.65
2023-02-19T05:04:04.998Z,1.73
2023-02-19T05:06:31.390Z,2.53
2023-02-19T05:08:57.828Z,1.35
2023-02-19T05:11:24.384Z,2.08
2023-02-19T05:13:51.034Z,1.10
2023-02-19T05:16:17.801Z,1.60
2023-02-19T05:18:45.294Z,2.50
2023-02-19T05:21:12.074Z,1.63
2023-02-19T05:23:38.983Z,2.65
2023-02-19T05:26:06.550Z,1.90
2023-02-19T05:28:33.022Z,1.30
2023-02-19T05:31:03.852Z,1.50
2023-02-19T05:33:30.181Z,1.80
2023-02-19T05:35:56.578Z,1.70
2023-02-19T05:38:23.269Z,1.27
2023-02-19T05:40:49.801Z,1.77
2023-02-19T05:43:16.192Z,1.00
2023-02-19T05:45:43.927Z,1.42
2023-02-19T05:48:10.771Z,1.08
2023-02-19T05:50:39.640Z,0.93
2023-02-19T05:53:06.406Z,1.23
2023-02-19T05:55:36.262Z,1.25
2023-02-19T05:58:02.888Z,1.52
2023-02-19T06:00:29.265Z,1.42
2023-02-19T06:02:55.641Z,1.77
2023-02-19T06:05:22.058Z,1.85
2023-02-19T06:07:50.404Z,1.85
2023-02-19T06:10:17.081Z,1.70
2023-02-19T06:12:43.536Z,1.30
2023-02-19T06:15:09.894Z,1.42
2023-02-19T06:17:36.253Z,1.58
2023-02-19T06:20:03.271Z,1.40
2023-02-19T06:22:29.600Z,1.45
2023-02-19T06:24:55.963Z,1.35
2023-02-19T06:27:22.363Z,1.60
2023-02-19T06:29:48.744Z,1.02
2023-02-19T06:32:15.217Z,1.23
2023-02-19T06:34:41.631Z,1.90
2023-02-19T06:37:08.007Z,1.30
2023-02-19T06:39:34.448Z,0.75
2023-02-19T06:42:00.870Z,0.80
2023-02-19T06:44:27.200Z,1.08
2023-02-19T06:46:56.863Z,0.90
2023-02-19T06:49:23.200Z,1.52
2023-02-19T06:51:49.494Z,1.42
2023-02-19T06:54:15.836Z,1.45
2023-02-19T06:56:42.200Z,1.33
2023-02-19T06:59:10.390Z,1.17
2023-02-19T07:01:37.241Z,1.40
2023-02-19T07:04:04.560Z,1.23
2023-02-19T07:06:31.288Z,1.42
2023-02-19T07:08:58.117Z,1.77
2023-02-19T07:11:24.727Z,1.92
2023-02-19T07:14:14.178Z,1.20
2023-02-19T07:16:40.618Z,1.42
2023-02-19T07:19:06.995Z,1.30
2023-02-19T07:21:37.610Z,0.82
2023-02-19T07:24:05.431Z,1.80
2023-02-19T07:26:31.984Z,1.40
2023-02-19T07:28:58.335Z,1.10
2023-02-19T07:31:24.930Z,1.08
2023-02-19T07:33:51.603Z,2.13
2023-02-19T07:36:18.332Z,1.73
2023-02-19T07:38:44.959Z,0.85
2023-02-19T07:41:11.664Z,1.30
2023-02-19T07:43:38.849Z,1.48
2023-02-19T07:46:06.282Z,1.50
2023-02-19T07:48:34.135Z,0.93
2023-02-19T07:51:01.335Z,1.10
2023-02-19T07:53:28.076Z,1.60
2023-02-19T07:55:58.600Z,1.90
2023-02-19T07:58:24.941Z,1.95
2023-02-19T08:00:51.326Z,1.40
2023-02-19T08:03:17.703Z,1.50
2023-02-19T08:05:44.936Z,1.70
2023-02-19T08:08:12.850Z,1.67
2023-02-19T08:10:57.928Z,1.08
2023-02-19T08:13:25.341Z,1.40
2023-02-19T08:16:16.951Z,1.33
2023-02-19T08:18:45.472Z,2.08
2023-02-19T08:21:12.052Z,2.97
2023-02-19T08:23:38.871Z,1.67
2023-02-19T08:26:05.587Z,1.30
2023-02-19T08:28:32.318Z,1.20
2023-02-19T08:31:00.165Z,1.05
2023-02-19T08:33:26.688Z,1.52
2023-02-19T08:35:53.061Z,1.98
2023-02-19T08:38:19.383Z,1.42
2023-02-19T08:40:45.739Z,1.88
2023-02-19T08:43:13.172Z,1.90
2023-02-19T08:45:40.574Z,2.00
2023-02-19T08:48:07.264Z,1.98
2023-02-19T08:50:34.114Z,1.60
2023-02-19T08:53:00.665Z,2.22
2023-02-19T08:55:27.047Z,1.67
2023-02-19T08:57:53.468Z,2.17
2023-02-19T09:00:21.375Z,1.48
2023-02-19T09:02:48.422Z,1.38
2023-02-19T09:05:15.291Z,1.92
2023-02-19T09:07:41.785Z,1.50
2023-02-19T09:10:08.506Z,1.63
2023-02-19T09:12:34.926Z,2.10
2023-02-19T09:15:01.257Z,1.40
2023-02-19T09:17:27.711Z,2.53
2023-02-19T09:19:54.102Z,1.55
2023-02-19T09:22:20.648Z,2.00
2023-02-19T09:24:46.949Z,2.40
2023-02-19T09:27:17.283Z,1.40
2023-02-19T09:29:44.219Z,2.15
2023-02-19T09:32:11.073Z,1.52
2023-02-19T09:34:38.995Z,2.40
2023-02-19T09:37:05.690Z,1.30
2023-02-19T09:39:32.351Z,0.70
2023-02-19T09:42:01.140Z,0.90
2023-02-19T09:44:29.057Z,1.10
2023-02-19T09:46:56.117Z,0.98
2023-02-19T09:49:23.192Z,0.90
2023-02-19T09:52:02.443Z,0.80
2023-02-19T09:54:30.294Z,0.85
2023-02-19T09:56:57.713Z,1.08
2023-02-19T09:59:25.966Z,0.70
2023-02-19T10:01:57.534Z,0.68
2023-02-19T10:04:23.957Z,0.90
2023-02-19T10:06:51.077Z,0.88
2023-02-19T10:09:25.913Z,1.30
2023-02-19T10:11:54.039Z,0.53
2023-02-19T10:14:29.826Z,0.90
2023-02-19T10:19:22.385Z,0.60
2023-02-19T10:21:48.777Z,0.75
2023-02-19T10:24:27.040Z,1.90
2023-02-19T10:26:53.392Z,1.02
2023-02-19T10:29:21.542Z,1.13
2023-02-19T10:31:48.121Z,0.70
2023-02-19T10:34:22.260Z,0.60
2023-02-19T10:36:50.827Z,0.60
2023-02-19T10:39:23.386Z,0.70
2023-02-19T10:41:50.716Z,0.80
2023-02-19T10:44:34.045Z,0.65
2023-02-19T10:47:01.083Z,0.43
2023-02-19T10:49:38.553Z,0.50
2023-02-19T10:52:23.580Z,0.95
2023-02-19T10:54:51.658Z,0.82
2023-02-19T10:57:17.978Z,0.77
2023-02-19T11:00:13.566Z,0.90
2023-02-19T11:02:39.865Z,0.50
2023-02-19T11:05:18.208Z,0.80
2023-02-19T11:07:49.287Z,0.52
2023-02-19T11:10:24.216Z,1.00
2023-02-19T11:12:51.895Z,1.00
2023-02-19T11:15:22.476Z,0.98
2023-02-19T11:18:18.175Z,0.88
2023-02-19T11:20:47.440Z,0.52
2023-02-19T11:23:15.539Z,0.95
2023-02-19T11:25:47.168Z,0.68
2023-02-19T11:28:16.486Z,1.23
2023-02-19T11:30:43.482Z,0.95
2023-02-19T11:33:26.682Z,0.60
2023-02-19T11:35:59.787Z,1.48
2023-02-19T11:38:26.223Z,0.70
2023-02-19T11:40:55.864Z,0.70
2023-02-19T11:43:29.113Z,0.70
2023-02-19T11:45:58.493Z,0.43
2023-02-19T11:48:47.977Z,0.55
2023-02-19T11:51:21.372Z,0.40
2023-02-19T11:53:52.542Z,0.40
2023-02-19T11:56:21.845Z,0.30
2023-02-19T11:59:02.401Z,0.47
2023-02-19T12:01:43.847Z,0.40
2023-02-19T12:04:25.442Z,0.50
2023-02-19T12:06:54.922Z,0.52
2023-02-19T12:09:27.573Z,0.40
2023-02-19T12:12:04.993Z,0.52
2023-02-19T12:14:34.104Z,0.90
2023-02-19T12:17:08.952Z,0.60
2023-02-19T12:19:35.491Z,0.52
2023-02-19T12:22:08.061Z,0.50
2023-02-19T12:24:54.622Z,0.70
2023-02-19T12:27:41.400Z,0.90
2023-02-19T12:30:17.328Z,0.90
2023-02-19T12:33:09.716Z,0.60
2023-02-19T12:35:51.410Z,0.45
2023-02-19T12:38:40.064Z,0.90
2023-02-19T12:41:19.665Z,0.52
2023-02-19T12:43:52.139Z,0.60
2023-02-19T12:46:25.007Z,0.38
2023-02-19T12:48:53.347Z,0.32
2023-02-19T12:51:22.629Z,0.70
2023-02-19T12:53:54.250Z,0.30
2023-02-19T12:56:26.337Z,0.60
2023-02-19T12:58:55.073Z,0.25
2023-02-19T13:01:24.034Z,0.30
2023-02-19T13:04:05.886Z,0.20
2023-02-19T13:06:43.078Z,0.20
2023-02-19T13:09:15.180Z,0.20
2023-02-19T13:11:41.488Z,0.40
2023-02-19T13:14:19.874Z,0.15
2023-02-19T13:16:49.914Z,0.40
2023-02-19T13:19:16.240Z,0.30
2023-02-19T13:22:03.003Z,0.30
2023-02-19T13:24:34.877Z,0.20
2023-02-19T13:27:04.217Z,0.20
2023-02-19T13:29:39.543Z,0.20
2023-02-19T13:32:24.759Z,0.13
2023-02-19T13:35:04.551Z,0.28
2023-02-19T13:37:34.730Z,0.20
2023-02-19T13:40:04.666Z,0.10
2023-02-19T13:42:35.012Z,0.38
2023-02-19T13:45:05.177Z,0.10
2023-02-19T13:47:50.091Z,0.43
2023-02-19T13:50:22.465Z,0.08
2023-02-19T13:52:49.403Z,0.10
2023-02-19T13:55:34.282Z,0.10
2023-02-19T13:58:19.293Z,0.20
2023-02-19T14:00:50.088Z,0.20
2023-02-19T14:03:28.635Z,0.13
2023-02-19T14:06:02.734Z,0.20
2023-02-19T14:08:47.987Z,0.30
2023-02-19T14:11:15.059Z,0.10
2023-02-19T14:13:50.768Z,0.20
2023-02-19T14:16:29.056Z,0.25
2023-02-19T14:18:56.329Z,0.30
2023-02-19T14:21:25.916Z,0.20
2023-02-19T14:23:53.611Z,0.10
2023-02-19T14:26:20.099Z,0.17
2023-02-19T14:28:47.613Z,0.30
2023-02-19T14:31:23.700Z,0.20
2023-02-19T14:33:51.831Z,0.20
2023-02-19T14:36:48.991Z,0.35
2023-02-19T14:39:24.428Z,0.30
2023-02-19T14:41:52.416Z,0.10
2023-02-19T14:44:30.156Z,0.28
2023-02-19T14:47:03.244Z,0.20
2023-02-19T14:49:32.316Z,0.20
2023-02-19T14:52:05.355Z,0.10
2023-02-19T14:54:37.883Z,0.05
2023-02-19T14:57:05.640Z,0.30
2023-02-19T14:59:32.129Z,0.10
2023-02-19T15:01:58.480Z,0.20
2023-02-19T15:04:26.719Z,0.20
2023-02-19T15:06:56.574Z,0.20
2023-02-19T15:09:26.947Z,0.20
2023-02-19T15:11:53.854Z,0.20
2023-02-19T15:14:22.414Z,0.30
2023-02-19T15:16:50.612Z,0.20
2023-02-19T15:19:17.235Z,0.10
2023-02-19T15:21:45.936Z,0.20
2023-02-19T15:24:14.182Z,0.20
2023-02-19T15:26:43.300Z,0.20
2023-02-19T15:29:28.424Z,0.25
2023-02-19T15:31:56.000Z,0.13
2023-02-19T15:34:26.670Z,0.08
2023-02-19T15:36:56.396Z,0.13
2023-02-19T15:39:24.260Z,0.22
2023-02-19T15:41:51.638Z,0.25
2023-02-19T15:44:17.965Z,0.13
2023-02-19T15:46:44.694Z,0.17
2023-02-19T15:49:37.390Z,0.20
2023-02-19T15:52:09.677Z,0.20
2023-02-19T15:54:46.381Z,0.20
2023-02-19T15:57:16.603Z,0.15
2023-02-19T15:59:45.117Z,0.10
2023-02-19T16:02:13.133Z,0.30
2023-02-19T16:04:40.304Z,0.25
2023-02-19T16:07:06.638Z,0.20
2023-02-19T16:09:35.869Z,0.10
2023-02-19T16:12:03.447Z,0.10
2023-02-19T16:14:32.654Z,0.20
2023-02-19T16:17:10.994Z,0.13
2023-02-19T16:19:46.635Z,0.20
2023-02-19T16:22:14.504Z,0.30
2023-02-19T16:24:45.088Z,0.10
2023-02-19T16:27:27.386Z,0.17
2023-02-19T16:29:54.834Z,0.10
2023-02-19T16:32:21.271Z,0.20
2023-02-19T16:34:49.110Z,0.20
2023-02-19T16:37:33.968Z,0.10
2023-02-19T16:40:09.451Z,0.20
2023-02-19T16:42:36.420Z,0.22
2023-02-19T16:45:02.754Z,0.28
2023-02-19T16:47:30.735Z,0.20
2023-02-19T16:49:57.799Z,0.25
2023-02-19T16:52:24.222Z,0.40
2023-02-19T16:54:50.599Z,0.17
2023-02-19T16:57:17.249Z,0.13
2023-02-19T16:59:43.665Z,0.17
2023-02-19T17:02:15.133Z,0.30
2023-02-19T17:04:41.745Z,0.30
2023-02-19T17:07:09.054Z,0.50
2023-02-19T17:09:35.467Z,0.40
2023-02-19T17:12:02.052Z,0.30
2023-02-19T17:14:28.423Z,0.50
2023-02-19T17:16:55.398Z,0.40
2023-02-19T17:19:22.630Z,0.40
2023-02-19T17:21:49.070Z,0.55
2023-02-19T17:24:15.424Z,0.45
2023-02-19T17:26:41.865Z,0.50
2023-02-19T17:29:13.963Z,0.60
2023-02-19T17:31:40.698Z,0.47
2023-02-19T17:34:07.208Z,0.52
2023-02-19T17:36:33.596Z,0.50
2023-02-19T17:39:00.579Z,0.50
2023-02-19T17:41:27.558Z,0.63
2023-02-19T17:43:53.947Z,0.50
2023-02-19T17:46:22.072Z,0.47
2023-02-19T17:48:48.421Z,0.47
2023-02-19T17:51:14.962Z,0.52
2023-02-19T17:53:41.840Z,0.43
2023-02-19T17:56:08.202Z,0.43
2023-02-19T17:58:34.611Z,0.60
2023-02-19T18:01:01.044Z,1.00
2023-02-19T18:03:27.437Z,0.98
2023-02-19T18:05:54.114Z,0.70
2023-02-19T18:08:20.517Z,1.40
2023-02-19T18:10:46.963Z,0.95
2023-02-19T18:13:13.392Z,0.90
2023-02-19T18:15:39.757Z,1.35
2023-02-19T18:18:06.146Z,1.00
2023-02-19T18:20:32.461Z,0.90
2023-02-19T18:22:58.836Z,1.08
2023-02-19T18:25:25.277Z,0.63
2023-02-19T18:27:51.679Z,0.90
2023-02-19T18:30:19.261Z,0.85
2023-02-19T18:32:48.087Z,0.50
2023-02-19T18:35:15.037Z,0.60
2023-02-19T18:37:41.376Z,0.60
2023-02-19T18:40:08.211Z,0.82
2023-02-19T18:42:34.613Z,0.82
2023-02-19T18:45:01.170Z,0.90
2023-02-19T18:47:27.935Z,0.80
2023-02-19T18:49:55.416Z,0.80
2023-02-19T18:52:22.526Z,1.25
2023-02-19T18:54:49.312Z,0.73
2023-02-19T18:57:15.890Z,0.98
2023-02-19T18:59:43.064Z,0.80
2023-02-19T19:02:10.167Z,1.00
2023-02-19T19:04:37.010Z,0.80
2023-02-19T19:07:04.158Z,0.90
2023-02-19T19:09:30.641Z,1.00
2023-02-19T19:11:57.017Z,0.90
2023-02-19T19:14:23.320Z,0.80
2023-02-19T19:16:49.650Z,0.90
2023-02-19T19:19:16.139Z,1.30
2023-02-19T19:21:42.684Z,0.82
2023-02-19T19:24:09.223Z,1.38
2023-02-19T19:26:35.642Z,1.63
2023-02-19T19:29:02.233Z,1.20
2023-02-19T19:31:33.892Z,1.65
2023-02-19T19:34:00.313Z,1.48
2023-02-19T19:36:26.693Z,1.58
2023-02-19T19:38:53.145Z,1.48
2023-02-19T19:41:20.088Z,1.63
2023-02-19T19:43:46.646Z,1.58
2023-02-19T19:46:19.036Z,1.20
2023-02-19T19:48:45.866Z,2.20
2023-02-19T19:51:12.773Z,1.75
2023-02-19T19:53:39.362Z,1.60
2023-02-19T19:56:05.919Z,1.90
2023-02-19T19:58:33.742Z,1.77
2023-02-19T20:01:01.707Z,1.42
2023-02-19T20:03:28.840Z,1.83
2023-02-19T20:05:55.327Z,1.70
2023-02-19T20:08:21.954Z,1.10
2023-02-19T20:10:48.314Z,1.38
2023-02-19T20:13:18.253Z,1.55
2023-02-19T20:15:44.983Z,1.60
2023-02-19T20:18:11.780Z,1.70
2023-02-19T20:20:38.186Z,1.83
2023-02-19T20:23:04.573Z,2.55
2023-02-19T20:25:30.953Z,1.80
2023-02-19T20:27:57.256Z,1.58
2023-02-19T20:30:23.744Z,2.38
2023-02-19T20:32:51.259Z,1.92
2023-02-19T20:35:17.987Z,2.28
2023-02-19T20:37:47.685Z,1.80
2023-02-19T20:40:15.467Z,2.03
2023-02-19T20:42:41.814Z,2.53
2023-02-19T20:45:08.465Z,2.35
2023-02-19T20:47:34.950Z,2.70
2023-02-19T20:50:01.289Z,1.90
2023-02-19T20:52:27.630Z,2.20
2023-02-19T20:54:55.770Z,2.97
2023-02-19T20:57:22.837Z,2.30
2023-02-19T20:59:49.253Z,2.45
2023-02-19T21:02:17.570Z,2.25
2023-02-19T21:04:44.014Z,3.33
2023-02-19T21:07:10.394Z,2.20
2023-02-19T21:09:36.836Z,2.65
2023-02-19T21:12:03.284Z,2.60
2023-02-19T21:14:29.782Z,2.58
2023-02-19T21:16:56.139Z,2.67
2023-02-19T21:19:22.632Z,2.95
2023-02-19T21:21:49.000Z,2.85
2023-02-19T21:24:15.669Z,3.20
2023-02-19T21:26:42.854Z,3.60
2023-02-19T21:29:12.583Z,3.47
2023-02-19T21:31:40.303Z,2.85
2023-02-19T21:34:07.689Z,2.63
2023-02-19T21:36:35.124Z,3.38
2023-02-19T21:39:01.617Z,3.30
2023-02-19T21:41:28.151Z,2.95
2023-02-19T21:43:55.220Z,3.40
2023-02-19T21:46:21.894Z,2.55
2023-02-19T21:48:49.166Z,2.70
2023-02-19T21:51:15.680Z,3.03
2023-02-19T21:53:42.111Z,3.50
2023-02-19T21:56:08.547Z,3.35
2023-02-19T21:58:34.973Z,3.50
2023-02-19T22:01:01.431Z,3.50
2023-02-19T22:03:27.902Z,3.33
2023-02-19T22:05:54.763Z,3.42
2023-02-19T22:08:21.301Z,3.38
2023-02-19T22:10:47.643Z,3.40
2023-02-19T22:13:14.045Z,3.67
2023-02-19T22:15:40.414Z,3.55
2023-02-19T22:18:06.794Z,3.58
2023-02-19T22:20:34.694Z,3.50
2023-02-19T22:23:01.071Z,3.67
2023-02-19T22:25:27.411Z,3.92
2023-02-19T22:27:53.789Z,4.05
2023-02-19T22:30:20.375Z,4.10
2023-02-19T22:32:46.750Z,4.00
2023-02-19T22:35:15.454Z,4.55
2023-02-19T22:37:42.247Z,5.57
2023-02-19T22:40:08.768Z,4.32
2023-02-19T22:42:36.086Z,4.22
2023-02-19T22:45:03.155Z,4.40
2023-02-19T22:47:29.513Z,4.25
2023-02-19T22:49:55.902Z,4.60
2023-02-19T22:52:23.946Z,4.90
2023-02-19T22:54:52.106Z,4.95
2023-02-19T22:57:18.454Z,4.45
2023-02-19T22:59:44.975Z,5.35
2023-02-19T23:02:11.290Z,4.45
2023-02-19T23:04:37.842Z,5.03
2023-02-19T23:07:05.680Z,4.32
2023-02-19T23:09:32.093Z,4.30
2023-02-19T23:12:06.273Z,4.80
2023-02-19T23:14:32.665Z,4.07
2023-02-19T23:16:59.115Z,4.38
2023-02-19T23:19:25.968Z,4.22
2023-02-19T23:21:53.183Z,5.82
2023-02-19T23:24:19.728Z,4.35
2023-02-19T23:26:50.427Z,4.18
2023-02-19T23:29:18.054Z,4.90
2023-02-19T23:31:44.830Z,4.47
2023-02-19T23:34:11.682Z,4.63
2023-02-19T23:36:41.940Z,4.47
2023-02-19T23:39:10.314Z,4.90
2023-02-19T23:41:36.977Z,4.25
2023-02-19T23:44:04.428Z,4.38
2023-02-19T23:46:31.999Z,5.82
2023-02-19T23:48:58.318Z,5.22
2023-02-19T23:51:25.137Z,4.35
2023-02-19T23:53:51.722Z,4.65
2023-02-19T23:56:24.490Z,4.68
2023-02-19T23:58:50.874Z,5.18
